createdAt,value
2023-06-19T00:00:08.420Z,13.38
2023-06-19T00:01:14.929Z,11.73
2023-06-19T00:02:19.052Z,13.00
2023-06-19T00:03:21.465Z,12.15
2023-06-19T00:04:23.848Z,11.77
2023-06-19T00:05:26.455Z,11.65
2023-06-19T00:06:29.509Z,11.65
2023-06-19T00:07:31.902Z,12.38
2023-06-19T00:08:34.140Z,13.02
2023-06-19T00:09:36.319Z,11.75
2023-06-19T00:10:38.565Z,12.57
2023-06-19T00:11:40.883Z,11.55
2023-06-19T00:12:43.019Z,12.15
2023-06-19T00:13:45.248Z,12.60
2023-06-19T00:14:48.203Z,12.48
2023-06-19T00:15:50.575Z,13.05
2023-06-19T00:16:52.836Z,12.55
2023-06-19T00:17:55.118Z,12.20
2023-06-19T00:18:57.823Z,13.07
2023-06-19T00:19:59.997Z,11.98
2023-06-19T00:21:02.287Z,12.07
2023-06-19T00:22:05.538Z,11.48
2023-06-19T00:23:12.007Z,12.18
2023-06-19T00:24:14.376Z,12.57
2023-06-19T00:25:16.758Z,11.48
2023-06-19T00:26:19.237Z,10.55
2023-06-19T00:27:21.946Z,11.63
2023-06-19T00:28:24.117Z,11.07
2023-06-19T00:29:29.331Z,11.73
2023-06-19T00:30:33.951Z,11.57
2023-06-19T00:31:38.374Z,11.95
2023-06-19T00:32:47.533Z,10.93
2023-06-19T00:33:50.213Z,11.45
2023-06-19T00:34:52.441Z,11.40
2023-06-19T00:35:56.277Z,11.38
2023-06-19T00:36:59.715Z,10.82
2023-06-19T00:38:01.976Z,11.68
2023-06-19T00:39:04.800Z,12.38
2023-06-19T00:40:19.422Z,10.98
2023-06-19T00:41:23.693Z,11.63
2023-06-19T00:42:25.938Z,12.38
2023-06-19T00:43:28.245Z,12.35
2023-06-19T00:44:30.775Z,11.02
2023-06-19T00:45:33.278Z,10.70
2023-06-19T00:46:39.356Z,11.05
2023-06-19T00:47:41.899Z,11.48
2023-06-19T00:48:44.267Z,11.43
2023-06-19T00:49:46.663Z,12.23
2023-06-19T00:50:50.594Z,10.95
2023-06-19T00:51:54.496Z,12.35
2023-06-19T00:52:56.919Z,11.18
2023-06-19T00:53:59.326Z,11.25
2023-06-19T00:55:01.866Z,11.00
2023-06-19T00:56:05.088Z,11.48
2023-06-19T00:57:08.232Z,11.07
2023-06-19T00:58:11.005Z,10.27
2023-06-19T00:59:18.718Z,11.00
2023-06-19T01:00:21.215Z,11.23
2023-06-19T01:01:25.079Z,10.32
2023-06-19T01:02:28.008Z,11.40
2023-06-19T01:03:30.739Z,10.63
2023-06-19T01:04:33.042Z,11.00
2023-06-19T01:05:35.289Z,10.70
2023-06-19T01:06:52.070Z,10.75
2023-06-19T01:08:05.350Z,9.77
2023-06-19T01:09:09.893Z,10.93
2023-06-19T01:10:17.353Z,9.90
2023-06-19T01:11:27.669Z,10.73
2023-06-19T01:13:50.210Z,10.02
2023-06-19T01:14:59.480Z,10.15
2023-06-19T01:16:03.565Z,10.73
2023-06-19T01:17:06.346Z,10.30
2023-06-19T01:18:08.799Z,11.30
2023-06-19T01:19:12.407Z,10.48
2023-06-19T01:20:16.705Z,10.27
2023-06-19T01:21:20.933Z,10.75
2023-06-19T01:22:28.725Z,10.35
2023-06-19T01:23:30.957Z,10.82
2023-06-19T01:24:33.316Z,11.63
2023-06-19T01:25:37.642Z,10.90
2023-06-19T01:26:41.959Z,11.40
2023-06-19T01:27:44.626Z,10.93
2023-06-19T01:28:47.385Z,10.75
2023-06-19T01:29:50.992Z,11.70
2023-06-19T01:30:54.220Z,11.05
2023-06-19T01:32:11.043Z,10.93
2023-06-19T01:33:29.800Z,11.50
2023-06-19T01:34:32.152Z,11.65
2023-06-19T01:35:38.329Z,12.13
2023-06-19T01:36:40.517Z,10.60
2023-06-19T01:37:44.374Z,11.63
2023-06-19T01:38:51.685Z,11.65
2023-06-19T01:39:54.394Z,11.05
2023-06-19T01:40:57.865Z,11.00
2023-06-19T01:42:00.433Z,11.05
2023-06-19T01:43:03.290Z,10.88
2023-06-19T01:44:06.137Z,10.60
2023-06-19T01:45:09.060Z,9.68
2023-06-19T01:46:11.995Z,9.50
2023-06-19T01:47:16.399Z,10.00
2023-06-19T01:48:18.590Z,9.35
2023-06-19T01:49:21.224Z,9.23
2023-06-19T01:50:26.626Z,8.55
2023-06-19T01:51:28.799Z,8.27
2023-06-19T01:52:31.024Z,8.27
2023-06-19T01:53:33.516Z,8.55
2023-06-19T01:54:35.859Z,9.20
2023-06-19T01:55:38.780Z,9.15
2023-06-19T01:56:41.082Z,9.27
2023-06-19T01:57:43.381Z,10.00
2023-06-19T01:58:45.659Z,9.70
2023-06-19T01:59:48.347Z,11.68
2023-06-19T02:00:50.746Z,11.27
2023-06-19T02:01:52.983Z,11.02
2023-06-19T02:02:55.241Z,9.88
2023-06-19T02:03:57.608Z,10.07
2023-06-19T02:04:59.940Z,10.07
2023-06-19T02:06:02.238Z,9.55
2023-06-19T02:07:05.033Z,10.00
2023-06-19T02:08:07.708Z,10.00
2023-06-19T02:09:12.586Z,9.90
2023-06-19T02:10:14.855Z,10.20
2023-06-19T02:11:17.154Z,10.65
2023-06-19T02:12:19.446Z,10.60
2023-06-19T02:13:21.582Z,9.73
2023-06-19T02:14:24.289Z,10.23
2023-06-19T02:15:27.321Z,10.18
2023-06-19T02:16:29.604Z,10.52
2023-06-19T02:17:31.915Z,9.63
2023-06-19T02:18:34.149Z,10.05
2023-06-19T02:19:37.039Z,9.30
2023-06-19T02:20:40.110Z,8.90
2023-06-19T02:21:42.247Z,9.60
2023-06-19T02:22:44.855Z,10.05
2023-06-19T02:23:47.242Z,8.60
2023-06-19T02:24:49.466Z,9.35
2023-06-19T02:25:51.664Z,9.27
2023-06-19T02:26:53.981Z,9.43
2023-06-19T02:27:56.217Z,8.55
2023-06-19T02:28:58.574Z,9.48
2023-06-19T02:30:00.968Z,8.32
2023-06-19T02:31:03.124Z,9.88
2023-06-19T02:32:05.988Z,8.50
2023-06-19T02:33:09.937Z,9.10
2023-06-19T02:34:12.339Z,9.52
2023-06-19T02:35:16.558Z,9.20
2023-06-19T02:36:20.890Z,8.95
2023-06-19T02:37:23.087Z,9.52
2023-06-19T02:38:25.576Z,9.52
2023-06-19T02:39:28.485Z,10.32
2023-06-19T02:40:31.562Z,10.05
2023-06-19T02:41:34.397Z,9.52
2023-06-19T02:42:36.823Z,10.20
2023-06-19T02:43:39.252Z,9.82
2023-06-19T02:44:43.644Z,9.77
2023-06-19T02:45:46.032Z,10.05
2023-06-19T02:46:48.231Z,10.18
2023-06-19T02:47:53.142Z,10.30
2023-06-19T02:48:55.423Z,9.05
2023-06-19T02:50:02.167Z,9.20
2023-06-19T02:51:04.509Z,8.68
2023-06-19T02:52:08.064Z,8.80
2023-06-19T02:53:10.379Z,9.43
2023-06-19T02:54:12.654Z,9.88
2023-06-19T02:55:14.885Z,8.88
2023-06-19T02:56:17.121Z,9.45
2023-06-19T02:57:20.716Z,9.38
2023-06-19T02:58:22.963Z,10.05
2023-06-19T02:59:25.195Z,10.00
2023-06-19T03:00:29.704Z,9.00
2023-06-19T03:01:33.380Z,9.32
2023-06-19T03:02:43.109Z,8.93
2023-06-19T03:03:47.792Z,9.75
2023-06-19T03:04:50.765Z,9.55
2023-06-19T03:05:53.535Z,9.07
2023-06-19T03:06:56.056Z,8.82
2023-06-19T03:07:58.432Z,9.50
2023-06-19T03:09:01.650Z,8.98
2023-06-19T03:10:04.499Z,8.80
2023-06-19T03:11:07.301Z,10.43
2023-06-19T03:12:10.588Z,8.40
2023-06-19T03:13:14.793Z,9.45
2023-06-19T03:14:17.134Z,10.30
2023-06-19T03:15:19.489Z,9.50
2023-06-19T03:16:25.095Z,9.38
2023-06-19T03:17:27.516Z,8.77
2023-06-19T03:18:29.748Z,8.95
2023-06-19T03:19:32.130Z,9.27
2023-06-19T03:20:35.023Z,9.40
2023-06-19T03:21:37.765Z,9.80
2023-06-19T03:22:42.695Z,9.25
2023-06-19T03:23:48.002Z,9.45
2023-06-19T03:24:51.441Z,8.40
2023-06-19T03:25:58.261Z,8.25
2023-06-19T03:27:00.691Z,8.27
2023-06-19T03:28:04.008Z,8.38
2023-06-19T03:29:06.359Z,8.13
2023-06-19T03:30:29.879Z,8.57
2023-06-19T03:31:32.493Z,8.40
2023-06-19T03:32:35.077Z,7.80
2023-06-19T03:33:38.135Z,8.48
2023-06-19T03:34:40.506Z,8.45
2023-06-19T03:35:45.074Z,9.15
2023-06-19T03:36:56.778Z,8.07
2023-06-19T03:37:59.212Z,8.57
2023-06-19T03:39:01.885Z,9.00
2023-06-19T03:40:07.695Z,8.48
2023-06-19T03:41:13.910Z,9.15
2023-06-19T03:42:16.174Z,8.27
2023-06-19T03:43:18.520Z,9.07
2023-06-19T03:44:21.606Z,9.07
2023-06-19T03:45:23.996Z,8.98
2023-06-19T03:46:26.265Z,8.32
2023-06-19T03:47:28.655Z,7.60
2023-06-19T03:48:31.036Z,7.60
2023-06-19T03:49:33.149Z,8.32
2023-06-19T03:50:35.747Z,9.25
2023-06-19T03:51:38.188Z,7.70
2023-06-19T03:52:40.375Z,8.30
2023-06-19T03:53:43.467Z,8.30
2023-06-19T03:54:45.755Z,7.45
2023-06-19T03:55:48.154Z,7.70
2023-06-19T03:56:50.515Z,7.95
2023-06-19T03:57:54.070Z,8.25
2023-06-19T03:58:58.127Z,8.63
2023-06-19T04:00:00.349Z,9.63
2023-06-19T04:01:02.618Z,7.93
2023-06-19T04:02:05.591Z,8.15
2023-06-19T04:03:07.902Z,8.52
2023-06-19T04:04:10.705Z,8.55
2023-06-19T04:05:13.388Z,9.43
2023-06-19T04:06:15.681Z,8.57
2023-06-19T04:07:17.959Z,9.70
2023-06-19T04:08:20.261Z,9.52
2023-06-19T04:09:22.605Z,8.95
2023-06-19T04:10:25.186Z,9.00
2023-06-19T04:11:27.978Z,9.57
2023-06-19T04:12:30.395Z,8.93
2023-06-19T04:13:32.941Z,9.40
2023-06-19T04:14:35.479Z,9.60
2023-06-19T04:15:38.620Z,8.77
2023-06-19T04:16:41.093Z,9.52
2023-06-19T04:17:45.839Z,9.65
2023-06-19T04:18:48.353Z,9.40
2023-06-19T04:19:50.610Z,9.52
2023-06-19T04:20:55.701Z,9.38
2023-06-19T04:21:57.984Z,8.10
2023-06-19T04:23:00.309Z,9.15
2023-06-19T04:24:06.101Z,8.02
2023-06-19T04:25:09.780Z,8.68
2023-06-19T04:26:12.117Z,8.30
2023-06-19T04:27:15.203Z,9.13
2023-06-19T04:28:17.616Z,8.25
2023-06-19T04:29:19.748Z,7.72
2023-06-19T04:30:22.613Z,8.27
2023-06-19T04:31:27.620Z,8.77
2023-06-19T04:32:30.051Z,9.07
2023-06-19T04:33:32.388Z,9.07
2023-06-19T04:34:34.901Z,8.38
2023-06-19T04:35:41.327Z,7.78
2023-06-19T04:36:44.823Z,8.55
2023-06-19T04:37:49.910Z,8.00
2023-06-19T04:38:53.467Z,7.85
2023-06-19T04:39:57.225Z,7.97
2023-06-19T04:40:59.562Z,7.85
2023-06-19T04:42:01.821Z,7.70
2023-06-19T04:43:06.827Z,7.95
2023-06-19T04:44:09.574Z,8.35
2023-06-19T04:45:11.983Z,7.53
2023-06-19T04:46:14.222Z,6.72
2023-06-19T04:47:19.090Z,7.32
2023-06-19T04:48:26.003Z,7.90
2023-06-19T04:49:31.985Z,6.88
2023-06-19T04:50:34.205Z,7.13
2023-06-19T04:51:36.502Z,6.93
2023-06-19T04:52:38.849Z,7.88
2023-06-19T04:53:41.441Z,8.73
2023-06-19T04:54:43.688Z,7.47
2023-06-19T04:55:46.273Z,7.43
2023-06-19T04:56:48.500Z,9.65
2023-06-19T04:57:50.833Z,7.40
2023-06-19T04:58:53.046Z,6.80
2023-06-19T04:59:55.354Z,6.85
2023-06-19T05:00:57.610Z,6.90
2023-06-19T05:02:00.305Z,6.97
2023-06-19T05:03:03.151Z,6.97
2023-06-19T05:04:06.116Z,6.45
2023-06-19T05:05:08.860Z,5.70
2023-06-19T05:06:11.203Z,7.03
2023-06-19T05:07:15.626Z,6.53
2023-06-19T05:08:17.920Z,5.80
2023-06-19T05:09:21.231Z,6.28
2023-06-19T05:10:23.951Z,6.22
2023-06-19T05:11:26.429Z,6.07
2023-06-19T05:12:28.849Z,6.35
2023-06-19T05:13:31.018Z,5.65
2023-06-19T05:14:33.202Z,6.38
2023-06-19T05:15:35.601Z,6.47
2023-06-19T05:16:37.924Z,6.28
2023-06-19T05:17:40.598Z,6.22
2023-06-19T05:18:43.287Z,5.72
2023-06-19T05:19:45.522Z,5.40
2023-06-19T05:20:47.752Z,6.25
2023-06-19T05:21:50.031Z,6.25
2023-06-19T05:22:52.292Z,6.25
2023-06-19T05:23:54.709Z,6.20
2023-06-19T05:24:57.077Z,5.75
2023-06-19T05:25:59.312Z,6.30
2023-06-19T05:27:04.856Z,5.78
2023-06-19T05:28:07.065Z,4.82
2023-06-19T05:29:09.888Z,5.43
2023-06-19T05:30:12.633Z,5.53
2023-06-19T05:31:15.068Z,5.50
2023-06-19T05:32:17.478Z,5.55
2023-06-19T05:33:19.757Z,4.97
2023-06-19T05:34:22.718Z,5.47
2023-06-19T05:35:25.051Z,5.15
2023-06-19T05:36:27.441Z,4.63
2023-06-19T05:37:29.737Z,4.43
2023-06-19T05:38:32.687Z,4.70
2023-06-19T05:39:34.867Z,3.83
2023-06-19T05:40:37.539Z,3.67
2023-06-19T05:41:39.804Z,3.17
2023-06-19T05:42:42.338Z,3.78
2023-06-19T05:43:44.826Z,4.13
2023-06-19T05:44:47.077Z,3.88
2023-06-19T05:45:49.449Z,4.22
2023-06-19T05:46:51.819Z,4.53
2023-06-19T05:47:54.100Z,4.38
2023-06-19T05:48:56.414Z,5.25
2023-06-19T05:49:58.999Z,5.60
2023-06-19T05:51:01.401Z,5.32
2023-06-19T05:52:03.729Z,5.53
2023-06-19T05:53:08.996Z,5.90
2023-06-19T05:54:11.348Z,6.05
2023-06-19T05:55:13.937Z,6.18
2023-06-19T05:56:17.263Z,5.80
2023-06-19T05:57:22.074Z,5.55
2023-06-19T05:58:26.783Z,5.13
2023-06-19T05:59:29.285Z,5.10
2023-06-19T06:00:33.277Z,5.50
2023-06-19T06:01:36.029Z,5.50
2023-06-19T06:02:38.431Z,5.32
2023-06-19T06:03:40.913Z,4.57
2023-06-19T06:04:43.853Z,4.38
2023-06-19T06:05:49.973Z,3.97
2023-06-19T06:06:52.324Z,4.57
2023-06-19T06:07:55.389Z,4.53
2023-06-19T06:08:57.674Z,4.47
2023-06-19T06:09:59.984Z,4.78
2023-06-19T06:11:02.353Z,4.50
2023-06-19T06:12:05.657Z,4.72
2023-06-19T06:13:08.058Z,4.47
2023-06-19T06:14:12.474Z,4.45
2023-06-19T06:15:15.784Z,5.25
2023-06-19T06:16:18.106Z,4.80
2023-06-19T06:17:20.350Z,4.68
2023-06-19T06:18:23.122Z,4.85
2023-06-19T06:19:25.407Z,4.70
2023-06-19T06:20:27.852Z,3.95
2023-06-19T06:21:30.116Z,4.63
2023-06-19T06:22:32.470Z,4.95
2023-06-19T06:23:34.991Z,4.40
2023-06-19T06:24:37.393Z,3.80
2023-06-19T06:25:39.781Z,4.20
2023-06-19T06:26:42.748Z,3.85
2023-06-19T06:27:45.357Z,4.10
2023-06-19T06:28:47.631Z,4.30
2023-06-19T06:29:50.020Z,4.00
2023-06-19T06:30:52.994Z,3.85
2023-06-19T06:32:05.847Z,3.42
2023-06-19T06:33:08.215Z,3.45
2023-06-19T06:34:10.561Z,3.60
2023-06-19T06:35:13.087Z,3.42
2023-06-19T06:36:25.611Z,4.45
2023-06-19T06:37:32.288Z,3.88
2023-06-19T06:38:34.582Z,4.28
2023-06-19T06:39:37.123Z,4.97
2023-06-19T06:40:39.558Z,3.22
2023-06-19T06:41:41.795Z,3.08
2023-06-19T06:42:48.396Z,3.28
2023-06-19T06:43:50.735Z,2.92
2023-06-19T06:44:52.850Z,2.85
2023-06-19T06:45:55.303Z,2.85
2023-06-19T06:46:57.632Z,2.92
2023-06-19T06:48:00.191Z,3.08
2023-06-19T06:49:02.388Z,3.22
2023-06-19T06:50:05.172Z,3.03
2023-06-19T06:51:07.437Z,2.70
2023-06-19T06:52:09.925Z,2.83
2023-06-19T06:53:12.258Z,2.53
2023-06-19T06:54:14.845Z,2.45
2023-06-19T06:55:16.983Z,2.70
2023-06-19T06:56:19.356Z,2.30
2023-06-19T06:57:21.706Z,2.28
2023-06-19T06:58:23.900Z,2.22
2023-06-19T06:59:29.247Z,2.65
2023-06-19T07:00:31.588Z,2.20
2023-06-19T07:01:34.077Z,2.30
2023-06-19T07:02:36.448Z,2.50
2023-06-19T07:03:38.866Z,2.10
2023-06-19T07:04:41.435Z,2.50
2023-06-19T07:05:43.708Z,2.30
2023-06-19T07:06:46.104Z,2.22
2023-06-19T07:07:48.344Z,2.38
2023-06-19T07:08:50.588Z,2.67
2023-06-19T07:09:52.883Z,2.35
2023-06-19T07:10:55.395Z,2.00
2023-06-19T07:11:57.981Z,2.13
2023-06-19T07:13:00.473Z,2.08
2023-06-19T07:14:03.803Z,2.08
2023-06-19T07:15:06.458Z,2.22
2023-06-19T07:16:09.043Z,2.20
2023-06-19T07:17:11.516Z,2.05
2023-06-19T07:18:13.818Z,1.80
2023-06-19T07:19:16.289Z,1.83
2023-06-19T07:20:18.588Z,1.92
2023-06-19T07:21:21.128Z,1.85
2023-06-19T07:22:23.326Z,2.20
2023-06-19T07:23:25.639Z,1.92
2023-06-19T07:24:27.864Z,1.90
2023-06-19T07:25:30.365Z,1.80
2023-06-19T07:26:32.845Z,2.10
2023-06-19T07:27:35.364Z,2.17
2023-06-19T07:28:38.262Z,2.35
2023-06-19T07:29:40.625Z,1.60
2023-06-19T07:30:43.112Z,1.83
2023-06-19T07:31:45.369Z,2.00
2023-06-19T07:32:47.933Z,2.10
2023-06-19T07:33:50.168Z,1.83
2023-06-19T07:34:52.475Z,1.83
2023-06-19T07:35:54.853Z,1.70
2023-06-19T07:36:57.101Z,1.80
2023-06-19T07:37:59.370Z,1.80
2023-06-19T07:39:02.366Z,1.90
2023-06-19T07:40:05.101Z,1.85
2023-06-19T07:41:08.611Z,1.77
2023-06-19T07:42:11.642Z,1.50
2023-06-19T07:43:13.857Z,1.70
2023-06-19T07:44:19.212Z,1.65
2023-06-19T07:45:23.809Z,1.90
2023-06-19T07:46:26.276Z,1.88
2023-06-19T07:47:29.066Z,1.30
2023-06-19T07:48:31.781Z,1.50
2023-06-19T07:49:34.148Z,1.80
2023-06-19T07:50:36.614Z,1.40
2023-06-19T07:51:39.070Z,1.15
2023-06-19T07:52:41.435Z,1.48
2023-06-19T07:53:44.570Z,1.52
2023-06-19T07:54:56.201Z,1.70
2023-06-19T07:55:58.401Z,1.27
2023-06-19T07:57:00.812Z,1.70
2023-06-19T07:58:03.420Z,1.40
2023-06-19T07:59:06.306Z,1.42
2023-06-19T08:00:12.449Z,1.77
2023-06-19T08:01:14.917Z,1.70
2023-06-19T08:02:17.770Z,1.48
2023-06-19T08:03:20.174Z,1.60
2023-06-19T08:04:22.727Z,1.60
2023-06-19T08:05:24.932Z,1.58
2023-06-19T08:06:27.206Z,1.30
2023-06-19T08:07:29.537Z,1.45
2023-06-19T08:08:31.850Z,1.45
2023-06-19T08:09:34.530Z,1.38
2023-06-19T08:10:36.810Z,1.58
2023-06-19T08:11:39.172Z,1.52
2023-06-19T08:12:43.797Z,2.10
2023-06-19T08:13:46.164Z,1.60
2023-06-19T08:14:48.417Z,1.45
2023-06-19T08:15:50.884Z,1.58
2023-06-19T08:16:53.060Z,1.45
2023-06-19T08:17:55.559Z,1.50
2023-06-19T08:18:57.809Z,1.65
2023-06-19T08:19:59.996Z,1.48
2023-06-19T08:21:02.178Z,1.63
2023-06-19T08:22:04.848Z,1.52
2023-06-19T08:23:07.150Z,1.50
2023-06-19T08:24:09.531Z,1.55
2023-06-19T08:25:12.115Z,1.63
2023-06-19T08:26:14.748Z,1.50
2023-06-19T08:27:16.932Z,1.42
2023-06-19T08:28:19.233Z,1.40
2023-06-19T08:29:22.085Z,1.77
2023-06-19T08:30:24.763Z,1.70
2023-06-19T08:31:29.542Z,1.30
2023-06-19T08:32:31.838Z,1.42
2023-06-19T08:33:36.394Z,1.20
2023-06-19T08:34:39.266Z,1.50
2023-06-19T08:35:41.456Z,1.23
2023-06-19T08:36:43.775Z,1.02
2023-06-19T08:37:46.203Z,1.20
2023-06-19T08:38:50.440Z,1.20
2023-06-19T08:39:53.269Z,1.40
2023-06-19T08:40:56.577Z,1.40
2023-06-19T08:41:59.006Z,1.30
2023-06-19T08:43:01.356Z,1.10
2023-06-19T08:44:04.412Z,1.42
2023-06-19T08:45:08.443Z,1.33
2023-06-19T08:46:16.867Z,1.40
2023-06-19T08:47:19.292Z,1.50
2023-06-19T08:48:22.174Z,1.60
2023-06-19T08:49:24.402Z,1.38
2023-06-19T08:50:27.503Z,1.20
2023-06-19T08:51:31.580Z,1.20
2023-06-19T08:52:35.558Z,1.30
2023-06-19T08:53:46.690Z,1.25
2023-06-19T08:54:48.967Z,1.40
2023-06-19T08:55:52.170Z,1.50
2023-06-19T08:56:55.481Z,1.30
2023-06-19T08:57:57.772Z,1.60
2023-06-19T08:59:14.809Z,1.45
2023-06-19T09:00:28.175Z,1.10
2023-06-19T09:01:33.850Z,1.42
2023-06-19T09:02:41.961Z,1.42
2023-06-19T09:03:45.504Z,1.60
2023-06-19T09:04:47.853Z,1.65
2023-06-19T09:05:52.236Z,1.88
2023-06-19T09:06:57.214Z,1.30
2023-06-19T09:08:02.005Z,1.90
2023-06-19T09:09:12.049Z,1.60
2023-06-19T09:10:18.944Z,1.80
2023-06-19T09:11:22.830Z,1.45
2023-06-19T09:12:25.216Z,1.52
2023-06-19T09:13:35.213Z,1.42
2023-06-19T09:14:38.401Z,1.52
2023-06-19T09:15:40.862Z,1.60
2023-06-19T09:16:43.581Z,1.60
2023-06-19T09:17:46.103Z,1.50
2023-06-19T09:18:53.158Z,1.52
2023-06-19T09:19:57.506Z,1.70
2023-06-19T09:21:00.004Z,1.67
2023-06-19T09:22:07.384Z,1.40
2023-06-19T09:23:09.853Z,1.48
2023-06-19T09:24:12.186Z,1.55
2023-06-19T09:25:15.380Z,1.60
2023-06-19T09:26:18.967Z,1.52
2023-06-19T09:27:22.009Z,1.73
2023-06-19T09:28:25.982Z,1.65
2023-06-19T09:29:28.284Z,1.63
2023-06-19T09:30:30.592Z,1.90
2023-06-19T09:31:34.508Z,1.98
2023-06-19T09:32:36.965Z,1.70
2023-06-19T09:33:41.608Z,1.92
2023-06-19T09:34:44.012Z,1.80
2023-06-19T09:35:46.314Z,1.70
2023-06-19T09:36:48.827Z,1.83
2023-06-19T09:37:52.812Z,1.90
2023-06-19T09:38:57.094Z,1.95
2023-06-19T09:40:12.307Z,1.88
2023-06-19T09:41:16.014Z,1.80
2023-06-19T09:42:19.422Z,1.77
2023-06-19T09:43:45.346Z,1.98
2023-06-19T09:44:50.710Z,2.15
2023-06-19T09:45:56.582Z,2.08
2023-06-19T09:47:00.675Z,1.98
2023-06-19T09:48:02.951Z,2.17
2023-06-19T09:49:29.977Z,2.17
2023-06-19T09:50:33.323Z,1.90
2023-06-19T09:51:39.400Z,2.58
2023-06-19T09:52:43.476Z,2.22
2023-06-19T09:53:47.280Z,2.85
2023-06-19T09:54:52.289Z,2.55
2023-06-19T09:55:54.680Z,2.20
2023-06-19T09:56:59.894Z,2.47
2023-06-19T09:58:04.189Z,2.40
2023-06-19T09:59:10.481Z,2.53
2023-06-19T10:00:15.031Z,2.20
2023-06-19T10:01:19.761Z,2.38
2023-06-19T10:02:23.776Z,2.15
2023-06-19T10:03:37.130Z,2.20
2023-06-19T10:04:53.688Z,2.35
2023-06-19T10:06:00.981Z,2.00
2023-06-19T10:07:03.411Z,2.20
2023-06-19T10:08:06.879Z,2.25
2023-06-19T10:09:11.382Z,2.55
2023-06-19T10:10:28.555Z,2.15
2023-06-19T10:11:46.853Z,1.77
2023-06-19T10:12:49.000Z,1.90
2023-06-19T10:13:51.240Z,1.90
2023-06-19T10:14:53.793Z,2.08
2023-06-19T10:15:56.051Z,2.10
2023-06-19T10:16:58.252Z,2.20
2023-06-19T10:18:02.403Z,1.90
2023-06-19T10:19:16.434Z,2.20
2023-06-19T10:20:46.851Z,1.90
2023-06-19T10:21:51.763Z,2.08
2023-06-19T10:22:58.296Z,1.95
2023-06-19T10:24:03.511Z,1.60
2023-06-19T10:25:06.349Z,1.63
2023-06-19T10:26:08.790Z,1.85
2023-06-19T10:27:11.637Z,1.60
2023-06-19T10:28:20.412Z,1.58
2023-06-19T10:29:23.115Z,1.45
2023-06-19T10:30:26.328Z,1.60
2023-06-19T10:31:32.006Z,1.77
2023-06-19T10:32:34.297Z,1.35
2023-06-19T10:33:41.430Z,1.30
2023-06-19T10:34:48.314Z,1.50
2023-06-19T10:35:50.650Z,1.30
2023-06-19T10:36:56.545Z,1.40
2023-06-19T10:37:58.984Z,1.70
2023-06-19T10:39:01.373Z,1.60
2023-06-19T10:40:03.993Z,1.60
2023-06-19T10:41:06.483Z,1.80
2023-06-19T10:42:09.769Z,1.25
2023-06-19T10:43:20.632Z,1.67
2023-06-19T10:44:26.585Z,1.60
2023-06-19T10:45:29.672Z,1.77
2023-06-19T10:46:37.013Z,1.70
2023-06-19T10:47:40.992Z,1.35
2023-06-19T10:48:44.337Z,1.60
2023-06-19T10:49:46.747Z,1.95
2023-06-19T10:50:49.920Z,1.77
2023-06-19T10:51:54.738Z,1.88
2023-06-19T10:52:59.850Z,1.75
2023-06-19T10:54:02.166Z,1.17
2023-06-19T10:55:06.042Z,1.55
2023-06-19T10:56:08.219Z,1.60
2023-06-19T10:57:10.526Z,1.60
2023-06-19T10:58:12.838Z,1.55
2023-06-19T10:59:15.034Z,1.55
2023-06-19T11:00:31.632Z,1.55
2023-06-19T11:01:39.106Z,1.45
2023-06-19T11:02:44.854Z,1.55
2023-06-19T11:03:47.493Z,1.70
2023-06-19T11:04:50.299Z,1.60
2023-06-19T11:05:52.641Z,1.45
2023-06-19T11:06:54.914Z,1.60
2023-06-19T11:07:59.572Z,1.55
2023-06-19T11:09:03.938Z,1.52
2023-06-19T11:10:06.956Z,1.45
2023-06-19T11:11:09.156Z,1.52
2023-06-19T11:12:12.451Z,1.58
2023-06-19T11:13:16.913Z,1.40
2023-06-19T11:14:19.314Z,1.55
2023-06-19T11:15:21.771Z,1.23
2023-06-19T11:16:24.260Z,1.60
2023-06-19T11:17:26.664Z,1.65
2023-06-19T11:18:29.124Z,1.63
2023-06-19T11:19:32.173Z,1.92
2023-06-19T11:20:53.792Z,1.60
2023-06-19T11:21:56.038Z,1.73
2023-06-19T11:23:02.262Z,1.98
2023-06-19T11:24:06.545Z,1.77
2023-06-19T11:25:10.741Z,1.83
2023-06-19T11:26:13.939Z,1.92
2023-06-19T11:27:25.663Z,1.83
2023-06-19T11:28:30.591Z,1.73
2023-06-19T11:29:33.688Z,1.80
2023-06-19T11:30:36.836Z,1.65
2023-06-19T11:31:40.055Z,1.85
2023-06-19T11:32:43.114Z,2.22
2023-06-19T11:33:45.475Z,2.13
2023-06-19T11:34:49.799Z,1.85
2023-06-19T11:35:53.444Z,1.98
2023-06-19T11:36:58.925Z,1.90
2023-06-19T11:38:01.601Z,2.13
2023-06-19T11:39:09.997Z,2.10
2023-06-19T11:40:20.820Z,2.17
2023-06-19T11:41:29.717Z,1.98
2023-06-19T11:42:34.249Z,2.38
2023-06-19T11:43:36.658Z,2.10
2023-06-19T11:44:58.615Z,2.00
2023-06-19T11:46:06.868Z,2.10
2023-06-19T11:47:11.934Z,1.90
2023-06-19T11:48:14.260Z,1.50
2023-06-19T11:49:19.167Z,1.73
2023-06-19T11:50:29.144Z,2.00
2023-06-19T11:51:33.551Z,2.10
2023-06-19T11:52:35.900Z,2.25
2023-06-19T11:53:38.573Z,2.03
2023-06-19T11:54:41.002Z,1.80
2023-06-19T11:55:44.937Z,2.17
2023-06-19T11:56:48.496Z,2.10
2023-06-19T11:57:50.883Z,1.75
2023-06-19T11:58:53.106Z,2.10
2023-06-19T11:59:55.754Z,1.95
2023-06-19T12:00:57.930Z,1.90
2023-06-19T12:02:00.899Z,2.05
2023-06-19T12:03:03.354Z,2.30
2023-06-19T12:04:06.312Z,2.55
2023-06-19T12:05:09.130Z,1.88
2023-06-19T12:06:11.377Z,2.15
2023-06-19T12:07:14.009Z,2.58
2023-06-19T12:08:16.153Z,2.00
2023-06-19T12:09:19.118Z,2.17
2023-06-19T12:10:21.593Z,2.20
2023-06-19T12:11:25.858Z,2.67
2023-06-19T12:12:28.154Z,2.28
2023-06-19T12:13:30.371Z,2.38
2023-06-19T12:14:32.641Z,2.60
2023-06-19T12:15:36.874Z,2.50
2023-06-19T12:16:40.164Z,2.58
2023-06-19T12:17:42.466Z,2.65
2023-06-19T12:18:44.741Z,2.35
2023-06-19T12:19:47.024Z,2.65
2023-06-19T12:20:49.194Z,2.15
2023-06-19T12:21:51.566Z,2.60
2023-06-19T12:22:54.049Z,2.40
2023-06-19T12:23:56.500Z,2.72
2023-06-19T12:24:58.868Z,2.03
2023-06-19T12:26:01.408Z,2.20
2023-06-19T12:27:03.787Z,2.50
2023-06-19T12:28:09.228Z,2.30
2023-06-19T12:29:11.596Z,2.65
2023-06-19T12:30:14.067Z,2.20
2023-06-19T12:31:16.226Z,2.67
2023-06-19T12:32:18.593Z,2.50
2023-06-19T12:33:21.925Z,2.58
2023-06-19T12:34:31.330Z,2.40
2023-06-19T12:35:34.534Z,2.30
2023-06-19T12:36:37.012Z,2.47
2023-06-19T12:37:39.418Z,2.13
2023-06-19T12:38:42.469Z,2.30
2023-06-19T12:39:45.199Z,2.20
2023-06-19T12:40:47.496Z,2.30
2023-06-19T12:41:49.821Z,2.65
2023-06-19T12:42:52.133Z,2.40
2023-06-19T12:43:54.512Z,2.25
2023-06-19T12:44:56.890Z,2.38
2023-06-19T12:46:00.560Z,2.42
2023-06-19T12:47:04.088Z,2.03
2023-06-19T12:48:06.528Z,2.65
2023-06-19T12:49:08.871Z,2.53
2023-06-19T12:50:12.636Z,2.00
2023-06-19T12:51:14.874Z,2.38
2023-06-19T12:52:17.148Z,2.60
2023-06-19T12:53:19.913Z,2.55
2023-06-19T12:54:22.147Z,2.70
2023-06-19T12:55:24.576Z,2.70
2023-06-19T12:56:27.055Z,2.45
2023-06-19T12:57:29.437Z,2.75
2023-06-19T12:58:31.842Z,2.28
2023-06-19T12:59:34.117Z,1.83
2023-06-19T13:00:36.628Z,2.55
2023-06-19T13:01:38.926Z,2.63
2023-06-19T13:02:44.218Z,3.00
2023-06-19T13:03:46.955Z,2.63
2023-06-19T13:04:49.239Z,2.72
2023-06-19T13:05:51.588Z,2.55
2023-06-19T13:06:53.932Z,2.40
2023-06-19T13:07:56.399Z,2.20
2023-06-19T13:08:58.993Z,2.60
2023-06-19T13:10:01.309Z,2.22
2023-06-19T13:11:03.562Z,2.75
2023-06-19T13:12:06.398Z,3.17
2023-06-19T13:13:11.474Z,2.60
2023-06-19T13:14:13.847Z,2.55
2023-06-19T13:15:16.143Z,2.70
2023-06-19T13:16:24.618Z,2.90
2023-06-19T13:17:32.818Z,2.40
2023-06-19T13:18:35.122Z,2.45
2023-06-19T13:19:37.593Z,2.60
2023-06-19T13:20:39.828Z,2.80
2023-06-19T13:21:43.146Z,2.97
2023-06-19T13:22:45.533Z,2.30
2023-06-19T13:23:50.194Z,2.60
2023-06-19T13:24:53.031Z,2.42
2023-06-19T13:25:55.487Z,2.85
2023-06-19T13:26:57.649Z,2.53
2023-06-19T13:27:59.849Z,2.60
2023-06-19T13:29:02.492Z,2.50
2023-06-19T13:30:05.264Z,2.83
2023-06-19T13:31:07.458Z,2.35
2023-06-19T13:32:09.846Z,2.65
2023-06-19T13:33:12.743Z,2.80
2023-06-19T13:34:15.056Z,3.10
2023-06-19T13:35:17.479Z,2.60
2023-06-19T13:36:24.147Z,2.60
2023-06-19T13:37:26.954Z,2.47
2023-06-19T13:38:29.315Z,2.65
2023-06-19T13:39:32.737Z,2.40
2023-06-19T13:40:35.139Z,2.72
2023-06-19T13:41:37.404Z,2.70
2023-06-19T13:42:40.029Z,2.67
2023-06-19T13:43:42.251Z,2.72
2023-06-19T13:44:44.561Z,2.60
2023-06-19T13:45:47.406Z,3.03
2023-06-19T13:46:50.403Z,2.72
2023-06-19T13:47:52.765Z,2.45
2023-06-19T13:48:55.109Z,2.70
2023-06-19T13:49:57.773Z,2.30
2023-06-19T13:51:01.788Z,2.40
2023-06-19T13:52:04.203Z,2.42
2023-06-19T13:53:06.436Z,2.50
2023-06-19T13:54:09.090Z,2.60
2023-06-19T13:55:11.459Z,2.45
2023-06-19T13:56:14.080Z,2.53
2023-06-19T13:57:16.652Z,2.72
2023-06-19T13:58:18.902Z,3.15
2023-06-19T13:59:21.183Z,2.80
2023-06-19T14:00:23.743Z,2.63
2023-06-19T14:01:27.424Z,2.70
2023-06-19T14:02:29.954Z,2.50
2023-06-19T14:03:32.571Z,2.60